Time;durP1;ratioP1;P1;durP2;ratioP2;P2;SDS_P1;SDS_P2;PMS_P1;PMS_P2;Temp;Humidity;BMP_temperature;BMP_pressure;BME280_temperature;BME280_humidity;BME280_pressure;Samples;Min_cycle;Max_cycle;Signal;HPM_P1;HPM_P2
2023/01/10 00:00:48;;;;;;;;;;;;;;;16.02;51.00;100585.25;5098673;28;1898;-50
2023/01/10 00:03:13;;;;;;;;;;;;;;;17.30;47.62;100577.78;5099020;28;1177;-49
2023/01/10 00:05:39;;;;;;;;;;;;;;;16.25;50.23;100577.56;5098420;28;1161;-47
2023/01/10 00:08:05;;;;;;;;;;;;;;;15.90;51.25;100579.22;5096812;28;2579;-48
2023/01/10 00:10:30;;;;;;;;;;;;;;;16.47;50.08;100581.94;5098886;28;1027;-51
2023/01/10 00:15:39;;;;;;;;;;;;;;;16.22;50.31;100578.13;5097955;28;1023;-49
2023/01/10 00:18:05;;;;;;;;;;;;;;;15.89;51.18;100586.63;5098584;28;975;-48
2023/01/10 00:20:30;;;;;;;;;;;;;;;17.27;48.00;100570.94;5098230;28;1965;-50
2023/01/10 00:22:56;;;;;;;;;;;;;;;16.59;49.41;100571.44;5098245;28;1146;-48
2023/01/10 00:25:22;;;;;;;;;;;;;;;16.08;50.79;100567.69;5097269;28;1050;-51
2023/01/10 00:30:34;;;;;;;;;;;;;;;15.65;52.06;100563.53;5098123;28;888;-48
2023/01/10 00:32:59;;;;;;;;;;;;;;;16.82;49.07;100552.72;5098293;28;994;-51
2023/01/10 00:35:25;;;;;;;;;;;;;;;16.82;48.76;100552.72;5098618;28;1065;-50
2023/01/10 00:37:56;;;;;;;;;;;;;;;16.11;51.00;100554.53;5089954;28;2403;-49
2023/01/10 00:40:21;;;;;;;;;;;;;;;15.81;51.49;100551.53;5098325;28;1970;-51
2023/01/10 00:45:31;;;;;;;;;;;;;;;17.17;47.82;100548.19;5097997;28;1070;-49
2023/01/10 00:47:56;;;;;;;;;;;;;;;16.18;50.29;100539.44;5098005;28;1066;-50
2023/01/10 00:50:22;;;;;;;;;;;;;;;15.82;51.42;100546.84;5098283;28;1050;-49
2023/01/10 00:52:47;;;;;;;;;;;;;;;15.64;52.00;100535.31;5097731;28;1070;-50
2023/01/10 00:55:13;;;;;;;;;;;;;;;16.92;48.93;100541.72;5098117;28;1130;-50
2023/01/10 00:57:38;;;;;;;;;;;;;;;16.85;48.63;100541.97;5097661;28;1086;-47
2023/01/10 01:00:06;;;;;;;;;;;;;;;16.08;50.57;100532.03;5097839;28;1902;-49
2023/01/10 01:02:32;;;;;;;;;;;;;;;15.83;51.55;100537.53;5097773;28;995;-51
2023/01/10 01:04:57;;;;;;;;;;;;;;;16.83;49.14;100532.38;5097551;28;1378;-49
2023/01/10 01:07:23;;;;;;;;;;;;;;;16.75;49.10;100534.59;5095272;28;2504;-47
2023/01/10 01:12:32;;;;;;;;;;;;;;;15.80;51.33;100527.13;5097760;28;1130;-45
2023/01/10 01:14:57;;;;;;;;;;;;;;;15.66;51.99;100524.06;5097164;28;1058;-45
2023/01/10 01:17:23;;;;;;;;;;;;;;;17.19;47.92;100513.81;5097749;28;1206;-48
2023/01/10 01:19:48;;;;;;;;;;;;;;;16.50;49.64;100502.59;5097313;28;1897;-49
2023/01/10 01:22:14;;;;;;;;;;;;;;;16.01;51.13;100497.78;5097358;28;1026;-49
2023/01/10 01:24:40;;;;;;;;;;;;;;;15.76;51.48;100487.63;5097337;28;1042;-48
2023/01/10 01:27:06;;;;;;;;;;;;;;;16.16;50.87;100502.38;5096648;28;1065;-51
2023/01/10 01:29:31;;;;;;;;;;;;;;;17.42;47.56;100504.06;5097230;28;1146;-46
2023/01/10 01:31:57;;;;;;;;;;;;;;;16.32;50.04;100495.78;5096998;28;1026;-46
2023/01/10 01:34:22;;;;;;;;;;;;;;;15.94;51.07;100480.78;5097050;28;1034;-48
2023/01/10 01:36:50;;;;;;;;;;;;;;;15.70;51.90;100495.84;5095656;28;2482;-50
2023/01/10 01:39:15;;;;;;;;;;;;;;;16.71;49.55;100488.78;5089991;28;1014;-46
2023/01/10 01:41:56;;;;;;;;;;;;;;;16.93;48.59;100489.25;5096356;28;1982;-46
2023/01/10 01:44:21;;;;;;;;;;;;;;;16.07;50.86;100489.25;5083151;28;1185;-45
2023/01/10 01:46:56;;;;;;;;;;;;;;;15.83;51.43;100488.19;5097201;28;1228;-50
2023/01/10 01:49:22;;;;;;;;;;;;;;;15.57;51.97;100491.72;5095434;28;1003;-50
2023/01/10 01:51:48;;;;;;;;;;;;;;;16.91;48.94;100498.88;5096817;28;983;-48
2023/01/10 01:54:13;;;;;;;;;;;;;;;16.73;49.27;100500.28;5094864;28;1121;-46
2023/01/10 01:56:46;;;;;;;;;;;;;;;16.07;50.80;100496.66;5095761;28;1039;-50
2023/01/10 01:59:13;;;;;;;;;;;;;;;15.76;51.80;100482.94;5096296;28;998;-49
2023/01/10 02:01:39;;;;;;;;;;;;;;;16.98;48.83;100482.09;5095432;28;1976;-47
2023/01/10 02:04:23;;;;;;;;;;;;;;;16.69;49.42;100483.56;5095909;28;1058;-50
2023/01/10 02:06:49;;;;;;;;;;;;;;;16.05;51.02;100477.72;5093966;28;2486;-49
2023/01/10 02:09:17;;;;;;;;;;;;;;;15.77;51.55;100473.63;5093939;28;1000;-47
2023/01/10 02:11:43;;;;;;;;;;;;;;;15.56;52.28;100489.28;5096618;28;1078;-48
2023/01/10 02:14:08;;;;;;;;;;;;;;;16.85;49.24;100486.25;5094723;28;1101;-51
2023/01/10 02:16:34;;;;;;;;;;;;;;;16.91;48.64;100490.63;5095666;28;1143;-48
2023/01/10 02:18:59;;;;;;;;;;;;;;;16.11;50.78;100483.22;5096236;28;988;-50
2023/01/10 02:21:30;;;;;;;;;;;;;;;15.82;51.52;100475.56;5096848;28;1984;-49
2023/01/10 02:24:15;;;;;;;;;;;;;;;15.81;51.64;100473.91;5096524;28;1054;-50
2023/01/10 02:27:01;;;;;;;;;;;;;;;17.34;47.62;100481.88;5095833;28;1489;-46
2023/01/10 02:29:27;;;;;;;;;;;;;;;16.22;50.69;100482.09;5096425;28;1173;-50
2023/01/10 02:32:07;;;;;;;;;;;;;;;15.88;51.42;100474.47;5095965;28;1077;-50
2023/01/10 02:34:51;;;;;;;;;;;;;;;15.64;52.15;100472.28;5095852;28;879;-47
2023/01/10 02:37:36;;;;;;;;;;;;;;;17.38;47.56;100461.75;5080754;28;2288;-49
2023/01/10 02:40:04;;;;;;;;;;;;;;;16.47;49.86;100477.63;5093094;28;1902;-51
2023/01/10 02:42:38;;;;;;;;;;;;;;;15.95;51.30;100472.28;5095951;28;1220;-52
2023/01/10 02:45:04;;;;;;;;;;;;;;;15.75;51.71;100475.81;5094264;28;1012;-49
2023/01/10 02:47:36;;;;;;;;;;;;;;;15.82;51.65;100475.56;5095406;28;1288;-49
2023/01/10 02:50:20;;;;;;;;;;;;;;;17.34;47.79;100473.63;5083306;28;1111;-49
2023/01/10 02:52:45;;;;;;;;;;;;;;;16.24;50.45;100464.25;5096066;28;1014;-51
2023/01/10 02:55:11;;;;;;;;;;;;;;;15.87;51.42;100472.84;5094478;28;824;-46
2023/01/10 02:58:09;;;;;;;;;;;;;;;15.97;51.54;100461.03;5094751;28;1123;-50
2023/01/10 03:00:37;;;;;;;;;;;;;;;17.28;47.91;100467.34;5064271;28;1906;-50
2023/01/10 03:03:21;;;;;;;;;;;;;;;16.28;50.29;100456.28;5095453;28;1062;-50
2023/01/10 03:06:06;;;;;;;;;;;;;;;15.96;51.22;100457.44;5095345;28;1090;-50
2023/01/10 03:08:42;;;;;;;;;;;;;;;15.70;51.77;100453.91;5092587;28;2660;-47
2023/01/10 03:11:08;;;;;;;;;;;;;;;17.12;48.58;100452.88;5094480;28;1174;-50
2023/01/10 03:13:38;;;;;;;;;;;;;;;16.57;49.58;100455.63;5095552;28;1114;-51
2023/01/10 03:16:04;;;;;;;;;;;;;;;15.95;51.13;100452.25;5094106;28;1027;-47
2023/01/10 03:18:31;;;;;;;;;;;;;;;15.72;51.81;100449.81;5094256;28;1130;-47
2023/01/10 03:20:57;;;;;;;;;;;;;;;15.70;52.14;100438.28;5095466;28;1909;-51
2023/01/10 03:23:22;;;;;;;;;;;;;;;17.34;47.87;100438.69;5094301;28;1186;-47
2023/01/10 03:25:48;;;;;;;;;;;;;;;16.43;49.96;100445.25;5094067;28;1019;-46
2023/01/10 03:28:24;;;;;;;;;;;;;;;15.97;51.42;100433.59;5093830;28;1075;-48
2023/01/10 03:30:49;;;;;;;;;;;;;;;15.79;51.58;100434.97;5094177;28;1163;-46
2023/01/10 03:33:16;;;;;;;;;;;;;;;17.38;47.67;100438.97;5095932;28;1034;-48
2023/01/10 03:35:56;;;;;;;;;;;;;;;16.47;50.17;100436.47;5094862;28;1407;-48
2023/01/10 03:38:36;;;;;;;;;;;;;;;15.98;51.13;100429.78;5086663;28;2461;-50
2023/01/10 03:41:03;;;;;;;;;;;;;;;15.79;51.84;100440.47;5095061;28;1902;-51
2023/01/10 03:46:21;;;;;;;;;;;;;;;17.04;48.62;100435.09;5095376;28;1095;-46
2023/01/10 03:48:47;;;;;;;;;;;;;;;16.19;50.68;100434.09;5094499;28;1098;-51
2023/01/10 03:51:12;;;;;;;;;;;;;;;15.92;51.41;100434.41;5094004;28;1103;-50
2023/01/10 03:53:38;;;;;;;;;;;;;;;15.72;51.82;100447.06;5095049;28;1031;-50
2023/01/10 03:56:03;;;;;;;;;;;;;;;16.06;51.36;100438.25;5093696;28;877;-48
2023/01/10 03:58:29;;;;;;;;;;;;;;;17.39;47.86;100427.69;5094390;28;1173;-47
2023/01/10 04:00:54;;;;;;;;;;;;;;;16.33;50.19;100420.59;5099139;28;1901;-48
2023/01/10 04:03:20;;;;;;;;;;;;;;;15.96;51.26;100415.50;5099524;28;1058;-48
2023/01/10 04:05:45;;;;;;;;;;;;;;;15.86;51.67;100421.81;5098448;28;1082;-48
2023/01/10 04:08:10;;;;;;;;;;;;;;;17.41;47.95;100419.16;5098410;28;2450;-50
2023/01/10 04:10:36;;;;;;;;;;;;;;;16.39;50.06;100419.47;5099323;28;1153;-48
2023/01/10 04:13:02;;;;;;;;;;;;;;;16.01;51.20;100410.00;5098768;28;1101;-50
2023/01/10 04:15:27;;;;;;;;;;;;;;;15.75;52.00;100415.50;5095594;28;987;-49
2023/01/10 04:17:53;;;;;;;;;;;;;;;16.39;50.41;100413.16;5088364;28;1066;-48
2023/01/10 04:20:18;;;;;;;;;;;;;;;17.58;47.08;100410.47;5098342;28;1897;-50
2023/01/10 04:22:44;;;;;;;;;;;;;;;16.54;49.84;100404.03;5098536;28;1185;-49
2023/01/10 04:25:09;;;;;;;;;;;;;;;16.05;51.30;100417.41;5098753;28;1119;-49
2023/01/10 04:27:35;;;;;;;;;;;;;;;15.85;51.80;100393.59;5098071;28;1027;-50
2023/01/10 04:30:00;;;;;;;;;;;;;;;16.68;49.78;100410.53;5098321;28;1200;-50
2023/01/10 04:32:26;;;;;;;;;;;;;;;16.95;48.74;100403.81;5098144;28;842;-51
2023/01/10 04:34:52;;;;;;;;;;;;;;;16.21;50.90;100395.41;5098126;28;1010;-54
2023/01/10 04:37:18;;;;;;;;;;;;;;;15.85;51.85;100399.09;5093428;28;2387;-55
2023/01/10 04:39:44;;;;;;;;;;;;;;;15.70;51.98;100399.91;5097794;28;1966;-45
2023/01/10 04:42:09;;;;;;;;;;;;;;;16.83;49.56;100403.31;5097773;28;1151;-45
2023/01/10 04:44:35;;;;;;;;;;;;;;;16.86;49.10;100400.84;5097718;28;889;-48
2023/01/10 04:47:00;;;;;;;;;;;;;;;16.13;50.80;100393.22;5098097;28;1011;-52
2023/01/10 04:49:26;;;;;;;;;;;;;;;15.81;51.95;100395.25;5098495;28;1206;-50
2023/01/10 04:51:51;;;;;;;;;;;;;;;15.67;51.99;100394.97;5097084;28;1015;-49
2023/01/10 04:54:20;;;;;;;;;;;;;;;15.98;51.56;100397.69;5092166;28;1007;-45
2023/01/10 04:56:45;;;;;;;;;;;;;;;17.36;47.99;100398.03;5097847;28;962;-52
2023/01/10 04:59:11;;;;;;;;;;;;;;;16.32;50.31;100405.22;5090909;28;1118;-47
2023/01/10 05:01:37;;;;;;;;;;;;;;;15.87;51.84;100393.31;5091961;28;2013;-54
2023/01/10 05:04:03;;;;;;;;;;;;;;;15.71;52.11;100393.31;5083766;28;1200;-53
2023/01/10 05:06:29;;;;;;;;;;;;;;;16.23;51.09;100399.50;5097214;28;1070;-56
2023/01/10 05:08:54;;;;;;;;;;;;;;;17.10;48.44;100406.47;5095849;28;2052;-54
2023/01/10 05:11:20;;;;;;;;;;;;;;;16.14;51.00;100401.19;5085937;28;1075;-53
2023/01/10 05:13:45;;;;;;;;;;;;;;;15.84;51.63;100396.63;5093654;28;1047;-54
2023/01/10 05:16:10;;;;;;;;;;;;;;;16.05;51.38;100406.41;5088440;28;1118;-53
2023/01/10 05:18:36;;;;;;;;;;;;;;;17.36;48.00;100411.78;5077213;28;1065;-56
2023/01/10 05:21:02;;;;;;;;;;;;;;;16.36;50.41;100408.25;5086827;28;1988;-56
2023/01/10 05:23:28;;;;;;;;;;;;;;;15.91;51.61;100397.16;5082108;28;983;-54
2023/01/10 05:25:53;;;;;;;;;;;;;;;16.36;50.65;100413.72;5086485;28;1003;-55
2023/01/10 05:28:19;;;;;;;;;;;;;;;17.31;48.00;100411.81;5082807;28;1079;-55
2023/01/10 05:30:44;;;;;;;;;;;;;;;16.34;50.65;100411.28;5096675;28;1110;-55
2023/01/10 05:33:09;;;;;;;;;;;;;;;15.95;51.36;100403.72;5096734;28;1053;-53
2023/01/10 05:35:35;;;;;;;;;;;;;;;15.76;51.92;100406.19;5088137;28;1365;-47
2023/01/10 05:38:00;;;;;;;;;;;;;;;15.62;52.26;100416.91;5082318;28;1956;-52
2023/01/10 05:40:26;;;;;;;;;;;;;;;17.01;48.95;100413.69;5087124;28;1905;-50
2023/01/10 05:42:51;;;;;;;;;;;;;;;16.59;49.94;100406.75;5094999;28;1042;-46
2023/01/10 05:45:16;;;;;;;;;;;;;;;16.01;51.58;100413.56;5095695;28;1093;-46
2023/01/10 05:47:42;;;;;;;;;;;;;;;15.74;52.20;100425.66;5082045;28;1107;-53
2023/01/10 05:50:08;;;;;;;;;;;;;;;16.44;50.51;100429.63;5095805;28;1496;-46
2023/01/10 05:52:34;;;;;;;;;;;;;;;17.32;48.00;100424.44;5084256;28;1217;-51
2023/01/10 05:54:59;;;;;;;;;;;;;;;16.31;50.74;100419.22;5082449;28;975;-51
2023/01/10 05:57:24;;;;;;;;;;;;;;;15.95;51.72;100419.34;5076698;28;1114;-51
2023/01/10 05:59:50;;;;;;;;;;;;;;;15.75;52.07;100415.50;5090301;28;1898;-45
2023/01/10 06:02:15;;;;;;;;;;;;;;;15.72;52.00;100411.41;5079411;28;1062;-49
2023/01/10 06:04:41;;;;;;;;;;;;;;;17.31;48.29;100400.00;5076013;28;988;-48
2023/01/10 06:07:06;;;;;;;;;;;;;;;16.48;49.98;100402.41;5087775;28;1894;-51
2023/01/10 06:09:32;;;;;;;;;;;;;;;15.99;51.49;100399.31;5076419;28;1112;-46
2023/01/10 06:11:57;;;;;;;;;;;;;;;15.82;52.17;100409.78;5077774;28;1077;-49
2023/01/10 06:14:23;;;;;;;;;;;;;;;17.41;47.92;100408.97;5096179;28;1089;-48
2023/01/10 06:16:48;;;;;;;;;;;;;;;16.57;50.00;100414.44;5083962;28;1039;-50
2023/01/10 06:19:14;;;;;;;;;;;;;;;16.06;51.37;100413.56;5083363;28;1011;-48
2023/01/10 06:21:39;;;;;;;;;;;;;;;15.83;51.97;100417.72;5082742;28;1978;-48
2023/01/10 06:24:05;;;;;;;;;;;;;;;17.12;48.72;100403.41;5095047;28;1010;-53
2023/01/10 06:26:30;;;;;;;;;;;;;;;16.02;50.59;100404.25;5086429;28;1027;-51
2023/01/10 06:28:57;;;;;;;;;;;;;;;16.72;49.90;100422.59;5088777;28;912;-49
2023/01/10 06:31:22;;;;;;;;;;;;;;;16.42;49.95;100413.44;5087860;28;1069;-48
2023/01/10 06:33:49;;;;;;;;;;;;;;;15.90;49.66;100412.75;5081001;28;1103;-51
2023/01/10 06:36:14;;;;;;;;;;;;;;;17.11;48.95;100423.78;5092772;28;1340;-48
2023/01/10 06:38:39;;;;;;;;;;;;;;;16.17;49.81;100417.09;5089986;28;2241;-46
2023/01/10 06:41:11;;;;;;;;;;;;;;;17.17;49.03;100421.81;5091848;28;1967;-51
2023/01/10 06:43:46;;;;;;;;;;;;;;;17.13;48.86;100423.50;5075718;28;1169;-45
2023/01/10 06:46:12;;;;;;;;;;;;;;;16.18;49.38;100409.69;5089489;28;1159;-51
2023/01/10 06:48:37;;;;;;;;;;;;;;;16.87;49.57;100423.63;5075771;28;1066;-48
2023/01/10 06:51:03;;;;;;;;;;;;;;;16.54;49.70;100420.50;5094998;28;1043;-46
2023/01/10 06:53:29;;;;;;;;;;;;;;;17.51;48.49;100420.97;5085979;28;1036;-50
2023/01/10 06:55:56;;;;;;;;;;;;;;;18.22;46.45;100430.47;5083621;28;1042;-48
2023/01/10 06:58:21;;;;;;;;;;;;;;;16.91;48.82;100441.19;5082249;28;1189;-49
2023/01/10 07:00:47;;;;;;;;;;;;;;;16.31;49.26;100444.72;5086091;28;1905;-51
2023/01/10 07:03:12;;;;;;;;;;;;;;;16.36;49.43;100441.97;5085817;28;1249;-48
2023/01/10 07:05:38;;;;;;;;;;;;;;;16.80;49.55;100447.81;5086299;28;1260;-47
2023/01/10 07:08:03;;;;;;;;;;;;;;;16.42;49.11;100438.13;5085690;28;1827;-48
2023/01/10 07:10:29;;;;;;;;;;;;;;;16.82;49.43;100449.19;5085721;28;1044;-47
2023/01/10 07:12:54;;;;;;;;;;;;;;;16.96;49.38;100440.34;5081893;28;1237;-49
2023/01/10 07:15:20;;;;;;;;;;;;;;;16.42;49.12;100440.88;5087836;28;1260;-50
2023/01/10 07:17:45;;;;;;;;;;;;;;;17.82;48.15;100449.00;5080097;28;1209;-46
2023/01/10 07:20:11;;;;;;;;;;;;;;;16.74;49.38;100450.59;5087854;28;1906;-51
2023/01/10 07:22:36;;;;;;;;;;;;;;;16.41;48.83;100444.72;5087270;28;1112;-51
2023/01/10 07:25:02;;;;;;;;;;;;;;;17.06;49.27;100440.28;5091759;28;1244;-51
2023/01/10 07:27:29;;;;;;;;;;;;;;;16.35;49.47;100437.59;5088382;28;1264;-52
2023/01/10 07:29:54;;;;;;;;;;;;;;;17.44;49.04;100444.09;5082171;28;1210;-51
2023/01/10 07:32:20;;;;;;;;;;;;;;;17.00;49.34;100434.00;5086109;28;1175;-49
2023/01/10 07:34:45;;;;;;;;;;;;;;;16.49;49.24;100434.25;5096669;28;1173;-56
2023/01/10 07:37:10;;;;;;;;;;;;;;;17.18;49.37;100428.94;5082380;28;1866;-53
2023/01/10 07:39:36;;;;;;;;;;;;;;;17.00;49.64;100435.91;5092493;28;1984;-53
2023/01/10 07:42:01;;;;;;;;;;;;;;;16.53;49.14;100435.34;5085507;28;940;-51
2023/01/10 07:44:27;;;;;;;;;;;;;;;16.79;49.99;100429.69;5097811;28;1003;-51
2023/01/10 07:46:52;;;;;;;;;;;;;;;16.72;49.46;100435.53;5092452;28;1150;-47
2023/01/10 07:49:18;;;;;;;;;;;;;;;16.37;48.75;100421.69;5091958;28;1015;-49
2023/01/10 07:51:43;;;;;;;;;;;;;;;17.28;49.14;100417.88;5098729;28;1126;-47
2023/01/10 07:54:08;;;;;;;;;;;;;;;16.49;49.33;100413.09;5098764;28;982;-48
2023/01/10 07:56:34;;;;;;;;;;;;;;;16.85;50.15;100426.66;5085379;28;1102;-47
2023/01/10 07:59:00;;;;;;;;;;;;;;;16.83;49.57;100419.78;5085568;28;994;-47
2023/01/10 08:01:25;;;;;;;;;;;;;;;16.37;49.10;100421.69;5090731;28;1921;-51
2023/01/10 08:03:51;;;;;;;;;;;;;;;16.18;48.44;100417.91;5093198;28;1168;-50
2023/01/10 08:06:16;;;;;;;;;;;;;;;17.63;48.46;100418.69;5090578;28;1166;-48
2023/01/10 08:08:42;;;;;;;;;;;;;;;16.50;49.73;100402.97;5094307;28;2085;-48
2023/01/10 08:11:07;;;;;;;;;;;;;;;17.48;49.12;100416.06;5098112;28;1047;-53
2023/01/10 08:13:33;;;;;;;;;;;;;;;17.31;49.16;100414.56;5098406;28;1249;-52
2023/01/10 08:15:58;;;;;;;;;;;;;;;16.58;49.20;100394.94;5097797;28;1348;-51
2023/01/10 08:18:23;;;;;;;;;;;;;;;16.44;48.39;100410.41;5097879;28;1233;-47
2023/01/10 08:20:49;;;;;;;;;;;;;;;16.21;47.80;100400.88;5094786;28;1980;-47
2023/01/10 08:23:15;;;;;;;;;;;;;;;17.10;49.14;100411.16;5097930;28;1202;-50
2023/01/10 08:25:40;;;;;;;;;;;;;;;16.37;49.23;100407.16;5095568;28;1241;-47
2023/01/10 08:28:06;;;;;;;;;;;;;;;17.54;48.75;100414.91;5098414;28;1213;-51
2023/01/10 08:30:31;;;;;;;;;;;;;;;17.03;49.61;100408.72;5098204;28;1252;-52
2023/01/10 08:32:57;;;;;;;;;;;;;;;16.50;49.33;100406.53;5087083;28;1201;-53
2023/01/10 08:35:22;;;;;;;;;;;;;;;17.13;49.79;100410.56;5089120;28;1206;-50
2023/01/10 08:37:48;;;;;;;;;;;;;;;16.66;49.76;100401.78;5089966;28;1935;-48
2023/01/10 08:40:13;;;;;;;;;;;;;;;17.48;49.10;100405.88;5087741;28;1901;-50
2023/01/10 08:42:38;;;;;;;;;;;;;;;18.07;47.86;100412.19;5088691;28;1370;-47
2023/01/10 08:45:04;;;;;;;;;;;;;;;16.93;49.20;100404.09;5085305;28;1277;-49
2023/01/10 08:47:30;;;;;;;;;;;;;;;16.62;48.51;100406.19;5090178;28;1237;-46
2023/01/10 08:49:55;;;;;;;;;;;;;;;16.38;48.02;100395.03;5091320;28;1214;-50
2023/01/10 08:52:21;;;;;;;;;;;;;;;16.34;48.09;100408.53;5086830;28;1296;-48
2023/01/10 08:54:46;;;;;;;;;;;;;;;16.73;48.82;100395.97;5089711;28;1205;-49
2023/01/10 08:57:11;;;;;;;;;;;;;;;17.27;49.12;100395.06;5089239;28;1316;-51
2023/01/10 08:59:37;;;;;;;;;;;;;;;18.66;46.98;100389.16;5092440;28;1972;-50
2023/01/10 09:02:03;;;;;;;;;;;;;;;17.10;49.77;100389.16;5087006;28;1177;-50
2023/01/10 09:04:29;;;;;;;;;;;;;;;16.76;48.83;100396.22;5089353;28;1372;-49
2023/01/10 09:06:55;;;;;;;;;;;;;;;16.64;47.87;100398.50;5092419;28;1831;-48
2023/01/10 09:09:23;;;;;;;;;;;;;;;16.80;48.64;100398.41;5077215;28;1102;-45
2023/01/10 09:11:48;;;;;;;;;;;;;;;16.83;49.42;100395.91;5083530;28;1054;-52
2023/01/10 09:14:14;;;;;;;;;;;;;;;16.35;49.04;100395.63;5096895;28;1074;-46
2023/01/10 09:16:39;;;;;;;;;;;;;;;17.69;48.64;100409.25;5097283;28;1189;-52
2023/01/10 09:19:05;;;;;;;;;;;;;;;16.72;49.44;100405.31;5087549;28;1644;-51
2023/01/10 09:21:30;;;;;;;;;;;;;;;16.64;49.97;100394.94;5093547;28;1989;-51
2023/01/10 09:23:56;;;;;;;;;;;;;;;17.05;49.42;100398.25;5096588;28;1321;-50
2023/01/10 09:26:21;;;;;;;;;;;;;;;16.59;49.00;100391.13;5094720;28;1110;-50
2023/01/10 09:28:48;;;;;;;;;;;;;;;16.33;48.10;100393.16;5097311;28;1241;-51
2023/01/10 09:31:13;;;;;;;;;;;;;;;16.63;48.50;100380.38;5084728;28;1066;-51
2023/01/10 09:33:40;;;;;;;;;;;;;;;16.81;49.34;100375.34;5096418;28;1162;-53
2023/01/10 09:36:05;;;;;;;;;;;;;;;16.39;48.75;100372.00;5097214;28;1090;-52
2023/01/10 09:38:31;;;;;;;;;;;;;;;16.96;49.12;100360.69;5096560;28;1105;-48
2023/01/10 09:40:56;;;;;;;;;;;;;;;16.68;49.23;100369.38;5097286;28;1984;-48
2023/01/10 09:43:34;;;;;;;;;;;;;;;16.79;49.36;100369.28;5096962;28;1263;-51
2023/01/10 09:45:59;;;;;;;;;;;;;;;17.70;48.04;100358.66;5092744;28;1027;-50
2023/01/10 09:48:48;;;;;;;;;;;;;;;16.80;49.13;100359.97;5097388;28;1249;-49
2023/01/10 09:51:18;;;;;;;;;;;;;;;16.43;48.20;100364.84;5086359;28;1277;-50
2023/01/10 09:53:44;;;;;;;;;;;;;;;17.22;49.13;100355.81;5093301;28;958;-50
2023/01/10 09:56:09;;;;;;;;;;;;;;;16.53;49.18;100353.81;5095576;28;1178;-49
2023/01/10 09:58:35;;;;;;;;;;;;;;;16.45;48.67;100345.34;5092466;28;945;-49
2023/01/10 10:01:03;;;;;;;;;;;;;;;16.91;49.02;100347.81;5082911;28;1901;-44
2023/01/10 10:03:30;;;;;;;;;;;;;;;16.60;48.57;100337.03;5089334;28;1210;-47
2023/01/10 10:05:55;;;;;;;;;;;;;;;18.16;47.30;100331.75;5078551;28;1226;-46
2023/01/10 10:08:21;;;;;;;;;;;;;;;16.88;49.24;100329.97;5088178;28;1234;-46
2023/01/10 10:10:49;;;;;;;;;;;;;;;16.59;48.49;100335.38;5092683;28;1051;-51
2023/01/10 10:13:14;;;;;;;;;;;;;;;16.33;47.96;100334.72;5096930;28;1094;-48
2023/01/10 10:15:59;;;;;;;;;;;;;;;16.24;47.25;100338.06;5096154;28;1125;-46
2023/01/10 10:18:34;;;;;;;;;;;;;;;17.26;48.09;100346.72;5078182;28;2244;-50
2023/01/10 10:21:02;;;;;;;;;;;;;;;16.50;49.06;100345.34;5086211;28;1980;-52
2023/01/10 10:23:45;;;;;;;;;;;;;;;17.82;48.04;100339.00;5085233;28;1950;-51
2023/01/10 10:26:20;;;;;;;;;;;;;;;17.21;49.16;100340.47;5082827;28;2230;-55
2023/01/10 10:28:52;;;;;;;;;;;;;;;16.72;48.90;100334.75;5089973;28;2225;-53
2023/01/10 10:31:30;;;;;;;;;;;;;;;16.46;48.20;100341.50;5079752;28;2203;-53
2023/01/10 10:34:04;;;;;;;;;;;;;;;17.08;49.19;100330.94;5081143;28;1990;-52
2023/01/10 10:36:49;;;;;;;;;;;;;;;16.62;49.56;100337.56;5076099;28;1006;-52
2023/01/10 10:39:33;;;;;;;;;;;;;;;16.40;49.07;100322.31;5083813;28;960;-51
2023/01/10 10:41:58;;;;;;;;;;;;;;;17.08;48.84;100318.03;5085667;28;2006;-51
2023/01/10 10:44:24;;;;;;;;;;;;;;;16.56;48.89;100314.00;5084262;28;1348;-49
2023/01/10 10:46:49;;;;;;;;;;;;;;;17.84;47.96;100312.03;5094687;28;1229;-49
2023/01/10 10:49:21;;;;;;;;;;;;;;;16.81;49.14;100314.94;5083522;28;1091;-51
2023/01/10 10:51:50;;;;;;;;;;;;;;;16.49;48.35;100305.25;5098464;28;1119;-51
2023/01/10 10:54:15;;;;;;;;;;;;;;;16.95;48.91;100313.19;5081427;28;1339;-52
2023/01/10 10:56:41;;;;;;;;;;;;;;;16.92;49.08;100302.78;5086405;28;1035;-49
2023/01/10 10:59:06;;;;;;;;;;;;;;;16.43;48.70;100308.03;5080737;28;1304;-48
2023/01/10 11:01:32;;;;;;;;;;;;;;;17.00;49.06;100302.16;5084101;28;1902;-52
2023/01/10 11:03:57;;;;;;;;;;;;;;;16.73;49.20;100292.47;5086683;28;1812;-51
2023/01/10 11:06:23;;;;;;;;;;;;;;;17.12;48.98;100292.72;5083855;28;1111;-48
2023/01/10 11:08:49;;;;;;;;;;;;;;;18.11;47.41;100280.34;5082390;28;1289;-48
2023/01/10 11:11:24;;;;;;;;;;;;;;;16.86;49.26;100284.69;5093194;28;948;-49
2023/01/10 11:13:52;;;;;;;;;;;;;;;16.57;48.39;100279.97;5114190;28;1061;-47
2023/01/10 11:16:25;;;;;;;;;;;;;;;16.47;47.55;100266.31;5097816;28;1126;-50
2023/01/10 11:19:09;;;;;;;;;;;;;;;17.80;47.96;100280.72;5090868;28;1436;-50
2023/01/10 11:21:35;;;;;;;;;;;;;;;16.73;49.33;100276.00;5093884;28;1917;-51
2023/01/10 11:24:00;;;;;;;;;;;;;;;16.73;49.41;100281.50;5091712;28;1189;-49
2023/01/10 11:26:44;;;;;;;;;;;;;;;17.07;49.08;100277.94;5090872;28;1288;-46
2023/01/10 11:29:12;;;;;;;;;;;;;;;16.55;48.49;100280.25;5092491;28;1124;-47
2023/01/10 11:31:38;;;;;;;;;;;;;;;17.49;48.41;100274.75;5091004;28;1257;-52
2023/01/10 11:34:04;;;;;;;;;;;;;;;16.79;48.84;100273.19;5093587;28;1793;-50
2023/01/10 11:36:42;;;;;;;;;;;;;;;16.44;48.27;100273.19;5091515;28;1310;-49
2023/01/10 11:39:12;;;;;;;;;;;;;;;16.63;48.54;100275.25;5094428;28;1310;-48
2023/01/10 11:41:38;;;;;;;;;;;;;;;16.84;48.91;100267.66;5090060;28;1984;-54
2023/01/10 11:44:17;;;;;;;;;;;;;;;17.17;48.97;100278.94;5084672;28;1246;-43
2023/01/10 11:46:43;;;;;;;;;;;;;;;18.32;47.03;100269.06;5091291;28;1038;-51
2023/01/10 11:49:13;;;;;;;;;;;;;;;17.06;48.88;100281.78;5101258;28;1007;-46
2023/01/10 11:51:39;;;;;;;;;;;;;;;16.56;48.59;100275.56;5090079;28;1087;-47
2023/01/10 11:54:25;;;;;;;;;;;;;;;16.44;47.70;100278.69;5111059;28;1384;-47
2023/01/10 11:56:57;;;;;;;;;;;;;;;17.74;48.02;100285.47;5097748;28;1598;-52
2023/01/10 11:59:23;;;;;;;;;;;;;;;16.64;49.34;100285.94;5095312;28;1134;-52
2023/01/10 12:02:00;;;;;;;;;;;;;;;16.53;48.00;100270.66;5098195;28;1913;-50
2023/01/10 12:04:26;;;;;;;;;;;;;;;16.34;47.47;100267.75;5089065;28;1815;-51
2023/01/10 12:06:52;;;;;;;;;;;;;;;17.12;48.12;100270.75;5093265;28;1118;-51
2023/01/10 12:09:38;;;;;;;;;;;;;;;16.73;48.93;100269.66;5090662;28;1245;-47
2023/01/10 12:12:27;;;;;;;;;;;;;;;16.27;48.43;100273.59;5090249;28;1040;-49
2023/01/10 12:14:53;;;;;;;;;;;;;;;17.38;48.00;100260.31;5091843;28;1174;-48
2023/01/10 12:17:24;;;;;;;;;;;;;;;16.58;48.86;100259.66;5096558;28;1388;-48
2023/01/10 12:19:52;;;;;;;;;;;;;;;17.56;48.03;100265.06;5100457;28;1913;-47
2023/01/10 12:22:17;;;;;;;;;;;;;;;17.38;48.70;100263.88;5090990;28;1186;-51
2023/01/10 12:24:43;;;;;;;;;;;;;;;16.63;48.97;100253.28;5093910;28;1336;-47
2023/01/10 12:27:12;;;;;;;;;;;;;;;17.24;49.09;100249.19;5086223;28;1258;-53
2023/01/10 12:29:42;;;;;;;;;;;;;;;16.86;49.33;100257.22;5078758;28;1298;-49
2023/01/10 12:32:12;;;;;;;;;;;;;;;16.53;48.46;100254.19;5078497;28;1059;-47
2023/01/10 12:34:41;;;;;;;;;;;;;;;16.51;48.60;100250.88;5083885;28;2171;-48
2023/01/10 12:37:18;;;;;;;;;;;;;;;16.98;48.90;100254.13;5096434;28;1042;-48
2023/01/10 12:39:45;;;;;;;;;;;;;;;16.46;48.86;100253.69;5096758;28;1984;-49
2023/01/10 12:45:05;;;;;;;;;;;;;;;17.56;47.97;100243.06;5077565;28;1037;-52
2023/01/10 12:47:33;;;;;;;;;;;;;;;16.57;48.94;100245.09;5084696;28;1179;-51
2023/01/10 12:50:17;;;;;;;;;;;;;;;16.36;48.41;100247.16;5086255;28;1269;-45
2023/01/10 12:52:46;;;;;;;;;;;;;;;17.52;48.10;100246.69;5088944;28;1545;-48
2023/01/10 12:55:13;;;;;;;;;;;;;;;16.68;48.48;100250.50;5089822;28;1212;-52
2023/01/10 12:57:38;;;;;;;;;;;;;;;16.36;48.16;100249.09;5087873;28;1256;-49
2023/01/10 13:00:04;;;;;;;;;;;;;;;16.25;47.68;100237.34;5097290;28;1949;-52
2023/01/10 13:02:33;;;;;;;;;;;;;;;17.46;48.22;100243.19;5080864;28;1040;-49
2023/01/10 13:04:59;;;;;;;;;;;;;;;16.62;49.00;100236.00;5087039;28;2117;-47
2023/01/10 13:07:29;;;;;;;;;;;;;;;16.48;49.02;100241.34;5113445;28;1154;-51